createdAt,value
2023-01-01T00:01:34.249Z,100648.63
2023-01-01T00:04:00.612Z,100651.06
2023-01-01T00:06:26.977Z,100663.38
2023-01-01T00:08:53.282Z,100652.06
2023-01-01T00:11:19.589Z,100662.91
2023-01-01T00:13:45.866Z,100664.38
2023-01-01T00:16:14.135Z,100667.78
2023-01-01T00:18:41.835Z,100664.47
2023-01-01T00:21:09.940Z,100665.53
2023-01-01T00:23:36.236Z,100662.38
2023-01-01T00:26:09.017Z,100660.59
2023-01-01T00:28:35.399Z,100670.13
2023-01-01T00:31:05.462Z,100673.22
2023-01-01T00:33:31.755Z,100673.81
2023-01-01T00:36:05.310Z,100676.44
2023-01-01T00:38:32.669Z,100679.59
2023-01-01T00:40:58.974Z,100670.41
2023-01-01T00:43:25.283Z,100669.31
2023-01-01T00:45:51.638Z,100667.59
2023-01-01T00:48:18.121Z,100656.88
2023-01-01T00:50:44.458Z,100661.41
2023-01-01T00:53:12.130Z,100662.59
2023-01-01T00:55:39.130Z,100660.94
2023-01-01T00:58:05.455Z,100664.66
2023-01-01T01:00:31.963Z,100667.72
2023-01-01T01:02:58.304Z,100663.44
2023-01-01T01:05:24.666Z,100670.63
2023-01-01T01:07:51.009Z,100667.13
2023-01-01T01:10:18.714Z,100678.41
2023-01-01T01:12:45.000Z,100672.78
2023-01-01T01:15:11.306Z,100673.44
2023-01-01T01:17:37.642Z,100679.53
2023-01-01T01:20:04.573Z,100678.53
2023-01-01T01:22:31.051Z,100675.72
2023-01-01T01:24:57.593Z,100685.31
2023-01-01T01:27:25.379Z,100681.09
2023-01-01T01:29:51.699Z,100680.50
2023-01-01T01:32:18.023Z,100687.16
2023-01-01T01:34:44.326Z,100686.06
2023-01-01T01:37:10.655Z,100691.44
2023-01-01T01:39:36.985Z,100695.13
2023-01-01T01:42:03.374Z,100688.66
2023-01-01T01:44:48.319Z,100686.63
2023-01-01T01:47:17.644Z,100700.19
2023-01-01T01:49:44.702Z,100715.69
2023-01-01T01:52:11.233Z,100705.44
2023-01-01T01:54:38.332Z,100708.66
2023-01-01T01:57:06.218Z,100714.94
2023-01-01T01:59:35.581Z,100714.38
2023-01-01T02:02:02.236Z,100708.13
2023-01-01T02:04:30.019Z,100707.38
2023-01-01T02:06:56.430Z,100716.44
2023-01-01T02:09:23.023Z,100715.22
2023-01-01T02:11:49.436Z,100712.66
2023-01-01T02:14:15.866Z,100726.47
2023-01-01T02:16:44.213Z,100723.81
2023-01-01T02:19:15.419Z,100727.38
2023-01-01T02:21:52.182Z,100729.50
2023-01-01T02:24:32.591Z,100723.50
2023-01-01T02:27:00.473Z,100717.81
2023-01-01T02:29:32.946Z,100734.22
2023-01-01T02:32:01.480Z,100745.19
2023-01-01T02:34:31.492Z,100746.09
2023-01-01T02:37:00.429Z,100748.59
2023-01-01T02:39:29.233Z,100741.56
2023-01-01T02:41:58.285Z,100754.50
2023-01-01T02:44:26.143Z,100750.34
2023-01-01T02:46:53.850Z,100741.88
2023-01-01T02:49:20.155Z,100738.66
2023-01-01T02:51:55.163Z,100729.16
2023-01-01T02:54:25.473Z,100723.16
2023-01-01T02:56:54.300Z,100730.63
2023-01-01T02:59:22.893Z,100734.66
2023-01-01T03:01:51.894Z,100736.63
2023-01-01T03:04:23.940Z,100744.34
2023-01-01T03:06:54.155Z,100737.44
2023-01-01T03:09:23.641Z,100732.94
2023-01-01T03:11:54.723Z,100729.97
2023-01-01T03:14:24.779Z,100735.69
2023-01-01T03:16:53.755Z,100747.31
2023-01-01T03:19:22.993Z,100749.41
2023-01-01T03:21:51.380Z,100759.47
2023-01-01T03:24:20.097Z,100749.59
2023-01-01T03:26:48.650Z,100762.13
2023-01-01T03:29:16.022Z,100765.91
2023-01-01T03:31:44.744Z,100768.22
2023-01-01T03:34:13.171Z,100771.44
2023-01-01T03:36:43.643Z,100764.38
2023-01-01T03:39:11.973Z,100756.63
2023-01-01T03:41:40.595Z,100753.84
2023-01-01T03:44:09.152Z,100759.31
2023-01-01T03:46:36.458Z,100761.84
2023-01-01T03:49:04.651Z,100769.28
2023-01-01T03:51:39.991Z,100775.63
2023-01-01T03:54:09.052Z,100780.44
2023-01-01T03:56:37.828Z,100786.13
2023-01-01T03:59:09.428Z,100774.19
2023-01-01T04:01:38.777Z,100788.41
2023-01-01T04:04:06.279Z,100785.44
2023-01-01T04:06:32.705Z,100788.72
2023-01-01T04:08:59.786Z,100796.75
2023-01-01T04:11:29.633Z,100791.97
2023-01-01T04:13:55.955Z,100791.78
2023-01-01T04:16:22.421Z,100784.78
2023-01-01T04:18:48.760Z,100793.78
2023-01-01T04:21:15.099Z,100788.09
2023-01-01T04:23:41.397Z,100802.47
2023-01-01T04:26:11.816Z,100805.13
2023-01-01T04:28:39.481Z,100825.84
2023-01-01T04:31:05.803Z,100806.28
2023-01-01T04:33:32.096Z,100791.13
2023-01-01T04:36:02.776Z,100768.78
2023-01-01T04:38:29.115Z,100781.69
2023-01-01T04:40:58.598Z,100782.06
2023-01-01T04:43:24.976Z,100761.69
2023-01-01T04:45:56.267Z,100776.06
2023-01-01T04:48:22.784Z,100790.91
2023-01-01T04:50:53.749Z,100797.44
2023-01-01T04:53:20.063Z,100803.25
2023-01-01T04:55:46.374Z,100807.09
2023-01-01T04:58:12.669Z,100804.25
2023-01-01T05:00:39.045Z,100810.63
2023-01-01T05:03:06.818Z,100808.41
2023-01-01T05:05:33.148Z,100819.47
2023-01-01T05:07:59.468Z,100817.28
2023-01-01T05:10:25.783Z,100822.47
2023-01-01T05:12:52.081Z,100823.69
2023-01-01T05:15:18.407Z,100845.59
2023-01-01T05:17:44.743Z,100835.00
2023-01-01T05:20:12.499Z,100846.59
2023-01-01T05:22:38.790Z,100849.94
2023-01-01T05:25:05.568Z,100853.69
2023-01-01T05:27:31.845Z,100860.69
2023-01-01T05:29:58.429Z,100857.03
2023-01-01T05:32:24.721Z,100865.59
2023-01-01T05:34:51.043Z,100875.06
2023-01-01T05:37:18.704Z,100879.06
2023-01-01T05:39:45.030Z,100892.59
2023-01-01T05:42:11.355Z,100894.38
2023-01-01T05:44:37.647Z,100896.94
2023-01-01T05:47:04.097Z,100881.56
2023-01-01T05:49:30.472Z,100887.38
2023-01-01T05:51:56.817Z,100880.00
2023-01-01T05:54:24.480Z,100886.56
2023-01-01T05:56:50.848Z,100901.09
2023-01-01T05:59:17.966Z,100903.88
2023-01-01T06:01:46.092Z,100913.25
2023-01-01T06:04:12.762Z,100926.13
2023-01-01T06:06:39.110Z,100924.81
2023-01-01T06:09:05.561Z,100912.78
2023-01-01T06:11:33.332Z,100927.13
2023-01-01T06:14:00.191Z,100928.81
2023-01-01T06:16:27.299Z,100935.97
2023-01-01T06:18:53.657Z,100936.97
2023-01-01T06:21:21.262Z,100943.16
2023-01-01T06:23:47.808Z,100931.47
2023-01-01T06:26:14.980Z,100925.97
2023-01-01T06:28:43.392Z,100932.97
2023-01-01T06:31:11.309Z,100940.31
2023-01-01T06:33:38.520Z,100942.50
2023-01-01T06:36:05.989Z,100943.66
2023-01-01T06:38:32.708Z,100949.22
2023-01-01T06:41:00.301Z,100954.91
2023-01-01T06:43:26.647Z,100974.88
2023-01-01T06:46:00.855Z,100973.94
2023-01-01T06:48:27.777Z,100978.22
2023-01-01T06:50:54.105Z,100990.09
2023-01-01T06:53:23.359Z,100994.63
2023-01-01T06:55:54.986Z,100998.94
2023-01-01T06:58:23.355Z,101002.63
2023-01-01T07:00:49.708Z,101010.81
2023-01-01T07:03:17.433Z,101016.84
2023-01-01T07:05:43.791Z,101022.53
2023-01-01T07:08:10.147Z,101023.91
2023-01-01T07:10:36.495Z,101035.59
2023-01-01T07:13:02.971Z,101030.91
2023-01-01T07:15:29.283Z,101042.09
2023-01-01T07:17:55.560Z,101043.78
2023-01-01T07:20:23.206Z,101039.81
2023-01-01T07:22:49.518Z,101047.94
2023-01-01T07:25:15.840Z,101049.97
2023-01-01T07:27:42.169Z,101070.16
2023-01-01T07:30:09.245Z,101077.34
2023-01-01T07:32:35.585Z,101077.50
2023-01-01T07:35:01.912Z,101088.47
2023-01-01T07:37:29.560Z,101088.47
2023-01-01T07:39:55.860Z,101081.47
2023-01-01T07:42:22.152Z,101094.13
2023-01-01T07:44:48.462Z,101087.28
2023-01-01T07:47:19.079Z,101094.81
2023-01-01T07:49:45.368Z,101083.78
2023-01-01T07:52:11.686Z,101102.59
2023-01-01T07:54:39.351Z,101096.44
2023-01-01T07:57:05.690Z,101080.94
2023-01-01T07:59:31.994Z,101100.94
2023-01-01T08:01:58.684Z,101098.09
2023-01-01T08:04:25.121Z,101094.13
2023-01-01T08:06:51.406Z,101103.78
2023-01-01T08:09:17.680Z,101103.94
2023-01-01T08:11:45.348Z,101122.63
2023-01-01T08:14:11.996Z,101119.78
2023-01-01T08:16:38.313Z,101117.59
2023-01-01T08:19:04.659Z,101120.13
2023-01-01T08:21:31.635Z,101124.97
2023-01-01T08:23:57.937Z,101129.16
2023-01-01T08:26:28.061Z,101131.97
2023-01-01T08:28:57.499Z,101136.00
2023-01-01T08:31:24.134Z,101143.16
2023-01-01T08:33:50.500Z,101150.00
2023-01-01T08:36:16.942Z,101134.69
2023-01-01T08:38:43.715Z,101142.19
2023-01-01T08:41:09.985Z,101165.72
2023-01-01T08:43:36.302Z,101172.38
2023-01-01T08:46:04.213Z,101175.19
2023-01-01T08:48:31.107Z,101170.53
2023-01-01T08:50:58.244Z,101171.38
2023-01-01T08:53:24.524Z,101170.72
2023-01-01T08:56:01.093Z,101173.91
2023-01-01T08:58:27.405Z,101187.56
2023-01-01T09:00:54.095Z,101190.75
2023-01-01T09:03:21.974Z,101188.91
2023-01-01T09:05:48.491Z,101190.72
2023-01-01T09:08:15.468Z,101190.56
2023-01-01T09:10:42.181Z,101185.56
2023-01-01T09:13:08.524Z,101189.06
2023-01-01T09:15:34.850Z,101199.09
2023-01-01T09:18:01.327Z,101195.59
2023-01-01T09:20:29.013Z,101211.28
2023-01-01T09:22:55.798Z,101217.78
2023-01-01T09:25:23.987Z,101221.06
2023-01-01T09:27:56.294Z,101215.25
2023-01-01T09:30:22.622Z,101216.94
2023-01-01T09:32:48.955Z,101219.75
2023-01-01T09:35:15.313Z,101219.09
2023-01-01T09:37:42.969Z,101218.56
2023-01-01T09:40:18.136Z,101222.44
2023-01-01T09:42:49.342Z,101226.56
2023-01-01T09:45:20.165Z,101231.28
2023-01-01T09:47:47.260Z,101233.94
2023-01-01T09:50:15.147Z,101232.94
2023-01-01T09:52:45.683Z,101238.44
2023-01-01T09:55:16.623Z,101233.25
2023-01-01T09:57:42.953Z,101234.41
2023-01-01T10:00:14.023Z,101240.13
2023-01-01T10:02:53.497Z,101230.94
2023-01-01T10:05:26.313Z,101230.28
2023-01-01T10:07:56.199Z,101227.44
2023-01-01T10:10:29.124Z,101220.13
2023-01-01T10:13:00.120Z,101225.09
2023-01-01T10:15:29.717Z,101218.94
2023-01-01T10:17:58.369Z,101216.59
2023-01-01T10:20:27.778Z,101215.41
2023-01-01T10:22:57.750Z,101211.28
2023-01-01T10:25:25.373Z,101208.09
2023-01-01T10:27:59.334Z,101197.25
2023-01-01T10:30:26.496Z,101198.06
2023-01-01T10:32:53.533Z,101205.75
2023-01-01T10:35:25.231Z,101211.94
2023-01-01T10:37:56.580Z,101210.59
2023-01-01T10:40:24.140Z,101215.28
2023-01-01T10:42:51.621Z,101217.13
2023-01-01T10:45:19.227Z,101216.59
2023-01-01T10:48:09.228Z,101207.75
2023-01-01T10:50:40.954Z,101223.13
2023-01-01T10:53:18.619Z,101229.63
2023-01-01T10:55:48.260Z,101225.59
2023-01-01T10:58:25.443Z,101231.28
2023-01-01T11:00:57.662Z,101229.28
2023-01-01T11:03:24.177Z,101226.63
2023-01-01T11:06:00.527Z,101222.13
2023-01-01T11:08:28.758Z,101215.94
2023-01-01T11:10:56.839Z,101216.09
2023-01-01T11:13:23.261Z,101230.13
2023-01-01T11:15:49.704Z,101238.28
2023-01-01T11:18:20.329Z,101240.13
2023-01-01T11:20:50.813Z,101257.16
2023-01-01T11:23:19.199Z,101250.78
2023-01-01T11:25:57.945Z,101254.31
2023-01-01T11:28:24.371Z,101261.31
2023-01-01T11:30:58.821Z,101268.34
2023-01-01T11:33:26.149Z,101259.13
2023-01-01T11:35:54.539Z,101257.97
2023-01-01T11:38:27.725Z,101251.44
2023-01-01T11:41:02.398Z,101254.13
2023-01-01T11:43:31.443Z,101244.59
2023-01-01T11:45:58.606Z,101241.09
2023-01-01T11:48:26.940Z,101242.28
2023-01-01T11:50:54.555Z,101236.94
2023-01-01T11:53:27.053Z,101232.91
2023-01-01T11:55:55.340Z,101234.59
2023-01-01T11:58:24.431Z,101226.56
2023-01-01T12:00:52.577Z,101231.06
2023-01-01T12:03:26.749Z,101225.44
2023-01-01T12:05:58.215Z,101221.25
2023-01-01T12:08:31.606Z,101222.22
2023-01-01T12:11:01.770Z,101227.44
2023-01-01T12:13:33.142Z,101234.59
2023-01-01T12:16:03.879Z,101230.25
2023-01-01T12:18:34.056Z,101230.78
2023-01-01T12:21:01.782Z,101239.78
2023-01-01T12:23:28.889Z,101241.63
2023-01-01T12:25:59.818Z,101239.78
2023-01-01T12:28:31.939Z,101230.44
2023-01-01T12:31:02.478Z,101224.25
2023-01-01T12:33:42.865Z,101233.59
2023-01-01T12:36:24.159Z,101240.94
2023-01-01T12:39:09.130Z,101241.63
2023-01-01T12:41:42.906Z,101237.78
2023-01-01T12:44:16.741Z,101259.31
2023-01-01T12:46:47.919Z,101255.31
2023-01-01T12:49:30.349Z,101256.66
2023-01-01T12:52:02.544Z,101250.31
2023-01-01T12:54:45.812Z,101252.97
2023-01-01T12:57:16.282Z,101242.81
2023-01-01T12:59:45.632Z,101242.28
2023-01-01T13:02:14.288Z,101232.78
2023-01-01T13:04:41.653Z,101239.78
2023-01-01T13:07:10.463Z,101239.47
2023-01-01T13:09:39.128Z,101232.09
2023-01-01T13:12:07.046Z,101233.28
2023-01-01T13:14:37.624Z,101242.31
2023-01-01T13:17:16.172Z,101248.13
2023-01-01T13:19:42.570Z,101228.28
2023-01-01T13:22:27.395Z,101239.13
2023-01-01T13:25:04.341Z,101239.97
2023-01-01T13:27:45.537Z,101233.28
2023-01-01T13:30:26.724Z,101234.31
2023-01-01T13:33:21.543Z,101234.31
2023-01-01T13:36:06.417Z,101223.13
2023-01-01T13:38:45.287Z,101229.78
2023-01-01T13:41:28.526Z,101226.09
2023-01-01T13:44:10.660Z,101227.63
2023-01-01T13:46:45.547Z,101220.94
2023-01-01T13:49:25.527Z,101223.13
2023-01-01T13:52:12.591Z,101212.59
2023-01-01T13:54:49.917Z,101212.09
2023-01-01T13:57:27.406Z,101198.41
2023-01-01T14:00:00.610Z,101209.59
2023-01-01T14:02:29.162Z,101218.75
2023-01-01T14:04:59.258Z,101214.25
2023-01-01T14:07:50.842Z,101220.59
2023-01-01T14:10:23.382Z,101231.13
2023-01-01T14:12:50.368Z,101233.25
2023-01-01T14:15:17.469Z,101235.63
2023-01-01T14:17:44.398Z,101237.44
2023-01-01T14:20:17.187Z,101244.63
2023-01-01T14:22:44.143Z,101243.09
2023-01-01T14:25:14.140Z,101245.59
2023-01-01T14:27:40.474Z,101243.25
2023-01-01T14:30:07.565Z,101238.91
2023-01-01T14:32:34.663Z,101238.44
2023-01-01T14:35:01.535Z,101235.59
2023-01-01T14:37:29.233Z,101239.28
2023-01-01T14:40:14.953Z,101233.09
2023-01-01T14:42:41.339Z,101236.44
2023-01-01T14:45:13.443Z,101237.09
2023-01-01T14:47:39.785Z,101225.94
2023-01-01T14:50:12.915Z,101233.59
2023-01-01T14:52:40.615Z,101225.72
2023-01-01T14:55:10.805Z,101233.56
2023-01-01T14:57:37.464Z,101239.06
2023-01-01T15:00:14.087Z,101224.06
2023-01-01T15:02:40.700Z,101234.88
2023-01-01T15:05:20.767Z,101230.69
2023-01-01T15:07:58.444Z,101232.38
2023-01-01T15:10:25.891Z,101239.84
2023-01-01T15:12:53.647Z,101254.88
2023-01-01T15:15:40.013Z,101248.91
2023-01-01T15:18:06.385Z,101240.69
2023-01-01T15:20:32.953Z,101242.00
2023-01-01T15:23:08.069Z,101244.84
2023-01-01T15:25:36.558Z,101232.81
2023-01-01T15:28:02.954Z,101234.00
2023-01-01T15:30:31.085Z,101233.63
2023-01-01T15:33:05.263Z,101223.28
2023-01-01T15:35:32.811Z,101223.63
2023-01-01T15:38:00.512Z,101206.94
2023-01-01T15:40:32.535Z,101215.94
2023-01-01T15:43:11.067Z,101209.91
2023-01-01T15:45:38.547Z,101213.44
2023-01-01T15:48:17.397Z,101210.91
2023-01-01T15:50:56.551Z,101212.91
2023-01-01T15:53:25.014Z,101209.75
2023-01-01T15:55:58.687Z,101219.56
2023-01-01T15:58:30.550Z,101223.91
2023-01-01T16:00:58.790Z,101233.44
2023-01-01T16:03:27.006Z,101233.44
2023-01-01T16:05:54.394Z,101249.44
2023-01-01T16:08:20.972Z,101238.06
2023-01-01T16:10:47.743Z,101241.06
2023-01-01T16:13:15.470Z,101244.41
2023-01-01T16:15:49.791Z,101242.72
2023-01-01T16:18:16.917Z,101243.34
2023-01-01T16:20:43.448Z,101235.03
2023-01-01T16:23:09.936Z,101238.16
2023-01-01T16:25:36.253Z,101230.66
2023-01-01T16:28:02.735Z,101233.63
2023-01-01T16:30:30.404Z,101231.28
2023-01-01T16:32:56.770Z,101223.94
2023-01-01T16:35:23.092Z,101228.88
2023-01-01T16:37:49.423Z,101232.88
2023-01-01T16:40:15.836Z,101227.84
2023-01-01T16:42:42.172Z,101215.00
2023-01-01T16:45:13.930Z,101222.47
2023-01-01T16:47:44.332Z,101220.97
2023-01-01T16:50:11.214Z,101213.13
2023-01-01T16:52:44.242Z,101202.09
2023-01-01T16:55:11.111Z,101196.13
2023-01-01T16:57:37.440Z,101204.09
2023-01-01T17:00:04.076Z,101192.09
2023-01-01T17:02:32.355Z,101179.91
2023-01-01T17:05:00.099Z,101181.06
2023-01-01T17:07:26.393Z,101193.56
2023-01-01T17:09:52.730Z,101196.53
2023-01-01T17:12:19.062Z,101187.84
2023-01-01T17:14:45.407Z,101184.22
2023-01-01T17:17:11.722Z,101183.53
2023-01-01T17:19:38.058Z,101176.53
2023-01-01T17:22:05.756Z,101182.16
2023-01-01T17:24:32.254Z,101167.03
2023-01-01T17:26:58.582Z,101170.03
2023-01-01T17:29:27.253Z,101167.34
2023-01-01T17:31:53.546Z,101177.31
2023-01-01T17:34:19.871Z,101177.63
2023-01-01T17:36:46.165Z,101173.44
2023-01-01T17:39:14.492Z,101174.28
2023-01-01T17:41:41.361Z,101173.63
2023-01-01T17:44:07.714Z,101172.09
2023-01-01T17:46:34.063Z,101178.41
2023-01-01T17:49:00.534Z,101174.91
2023-01-01T17:51:27.012Z,101175.91
2023-01-01T17:53:53.770Z,101169.59
2023-01-01T17:56:23.920Z,101173.50
2023-01-01T17:58:50.928Z,101173.50
2023-01-01T18:01:27.307Z,101154.75
2023-01-01T18:03:54.814Z,101154.03
2023-01-01T18:06:23.313Z,101154.03
2023-01-01T18:08:58.537Z,101151.38
2023-01-01T18:11:29.773Z,101152.56
2023-01-01T18:13:56.172Z,101150.88
2023-01-01T18:16:22.536Z,101146.53
2023-01-01T18:18:48.861Z,101143.88
2023-01-01T18:21:16.233Z,101129.06
2023-01-01T18:23:42.564Z,101125.75
2023-01-01T18:26:09.987Z,101129.06
2023-01-01T18:28:38.080Z,101126.41
2023-01-01T18:31:09.357Z,101124.19
2023-01-01T18:33:35.850Z,101118.72
2023-01-01T18:36:03.007Z,101112.06
2023-01-01T18:38:29.319Z,101105.72
2023-01-01T18:40:59.532Z,101103.38
2023-01-01T18:43:27.367Z,101086.59
2023-01-01T18:45:55.602Z,101088.88
2023-01-01T18:48:23.082Z,101088.03
2023-01-01T18:50:49.419Z,101077.91
2023-01-01T18:53:20.044Z,101081.41
2023-01-01T18:55:46.533Z,101081.41
2023-01-01T18:58:14.557Z,101070.63
2023-01-01T19:00:40.867Z,101077.09
2023-01-01T19:03:13.673Z,101068.41
2023-01-01T19:05:40.172Z,101059.75
2023-01-01T19:08:13.529Z,101065.91
2023-01-01T19:10:42.462Z,101062.25
2023-01-01T19:13:13.362Z,101063.94
2023-01-01T19:15:39.814Z,101054.28
2023-01-01T19:18:11.848Z,101049.94
2023-01-01T19:20:39.558Z,101048.13
2023-01-01T19:23:09.978Z,101046.31
2023-01-01T19:25:37.333Z,101037.97
2023-01-01T19:28:27.686Z,101036.31
2023-01-01T19:30:54.197Z,101037.28
2023-01-01T19:33:20.573Z,101028.63
2023-01-01T19:35:48.316Z,101026.97
2023-01-01T19:38:14.617Z,101025.97
2023-01-01T19:40:40.890Z,101016.16
2023-01-01T19:43:07.195Z,101008.19
2023-01-01T19:45:33.611Z,101013.34
2023-01-01T19:47:59.951Z,101001.19
2023-01-01T19:50:26.266Z,101008.34
2023-01-01T19:52:53.990Z,100989.56
2023-01-01T19:55:20.314Z,100992.91
2023-01-01T19:57:46.659Z,100988.72
2023-01-01T20:00:14.420Z,100974.44
2023-01-01T20:02:48.584Z,100965.78
2023-01-01T20:05:15.382Z,100963.13
2023-01-01T20:07:41.775Z,100954.47
2023-01-01T20:10:09.763Z,100950.97
2023-01-01T20:12:36.100Z,100937.84
2023-01-01T20:15:02.440Z,100934.50
2023-01-01T20:17:28.768Z,100925.84
2023-01-01T20:19:55.117Z,100932.00
2023-01-01T20:22:21.449Z,100932.84
2023-01-01T20:24:48.058Z,100926.69
2023-01-01T20:27:16.363Z,100916.88
2023-01-01T20:29:42.694Z,100926.69
2023-01-01T20:32:09.382Z,100918.41
2023-01-01T20:34:35.698Z,100909.75
2023-01-01T20:37:01.996Z,100891.28
2023-01-01T20:39:28.291Z,100898.72
2023-01-01T20:41:54.647Z,100917.03
2023-01-01T20:44:22.362Z,100920.53
2023-01-01T20:46:48.704Z,100918.72
2023-01-01T20:49:15.450Z,100911.56
2023-01-01T20:51:41.751Z,100917.88
2023-01-01T20:54:08.076Z,100927.53
2023-01-01T20:56:34.455Z,100932.00
2023-01-01T20:59:17.579Z,100932.16
2023-01-01T21:01:51.327Z,100928.66
2023-01-01T21:04:17.965Z,100922.34
2023-01-01T21:06:44.347Z,100925.47
2023-01-01T21:09:10.644Z,100916.84
2023-01-01T21:11:36.935Z,100923.66
2023-01-01T21:14:03.532Z,100920.00
2023-01-01T21:16:31.960Z,100907.69
2023-01-01T21:19:00.723Z,100902.22
2023-01-01T21:21:30.105Z,100902.91
2023-01-01T21:23:58.867Z,100895.91
2023-01-01T21:26:26.345Z,100890.28
2023-01-01T21:28:52.822Z,100893.78
2023-01-01T21:31:19.544Z,100895.59
2023-01-01T21:33:48.716Z,100878.66
2023-01-01T21:36:17.899Z,100888.16
2023-01-01T21:38:45.190Z,100878.16
2023-01-01T21:41:14.136Z,100873.84
2023-01-01T21:43:41.739Z,100878.00
2023-01-01T21:46:22.431Z,100871.69
2023-01-01T21:48:53.558Z,100875.03
2023-01-01T21:51:21.774Z,100874.88
2023-01-01T21:53:48.438Z,100878.38
2023-01-01T21:56:25.705Z,100863.25
2023-01-01T21:58:52.053Z,100864.91
2023-01-01T22:01:23.105Z,100862.25
2023-01-01T22:03:50.906Z,100861.22
2023-01-01T22:06:17.222Z,100864.72
2023-01-01T22:08:46.038Z,100860.25
2023-01-01T22:11:14.008Z,100852.25
2023-01-01T22:13:40.475Z,100851.25
2023-01-01T22:16:09.829Z,100842.44
2023-01-01T22:18:38.174Z,100839.16
2023-01-01T22:21:04.560Z,100839.94
2023-01-01T22:23:35.168Z,100839.16
2023-01-01T22:26:04.171Z,100837.47
2023-01-01T22:28:33.295Z,100831.31
2023-01-01T22:31:00.538Z,100828.81
2023-01-01T22:33:31.437Z,100833.16
2023-01-01T22:35:57.771Z,100828.81
2023-01-01T22:38:28.364Z,100826.31
2023-01-01T22:40:54.671Z,100824.50
2023-01-01T22:43:25.831Z,100824.66
2023-01-01T22:45:52.279Z,100816.50
2023-01-01T22:48:21.195Z,100819.31
2023-01-01T22:50:48.053Z,100814.84
2023-01-01T22:53:14.393Z,100807.84
2023-01-01T22:55:40.696Z,100811.34
2023-01-01T22:58:06.980Z,100815.84
2023-01-01T23:03:43.536Z,100799.72
2023-01-01T23:06:09.863Z,100800.56
2023-01-01T23:08:36.189Z,100798.56
2023-01-01T23:11:02.674Z,100808.03
2023-01-01T23:13:29.019Z,100800.88
2023-01-01T23:15:56.097Z,100814.19
2023-01-01T23:18:22.469Z,100810.53
2023-01-01T23:20:50.139Z,100812.88
2023-01-01T23:23:16.529Z,100798.56
2023-01-01T23:25:43.021Z,100796.59
2023-01-01T23:28:09.689Z,100785.63
2023-01-01T23:30:36.032Z,100782.47
2023-01-01T23:33:02.432Z,100792.63
2023-01-01T23:35:28.789Z,100781.63
2023-01-01T23:37:56.605Z,100776.31
2023-01-01T23:40:23.074Z,100785.97
2023-01-01T23:42:49.360Z,100793.09
2023-01-01T23:45:15.830Z,100792.81
2023-01-01T23:47:42.167Z,100790.16
2023-01-01T23:50:08.976Z,100792.66
2023-01-01T23:52:35.464Z,100785.81
2023-01-01T23:55:03.225Z,100789.28
2023-01-01T23:57:29.532Z,100779.66
2023-01-01T23:59:55.862Z,100784.69
